createdAt,value
2023-03-16T00:03:05.453Z,99403.22
2023-03-16T00:06:11.902Z,99399.99
2023-03-16T00:09:17.531Z,99395.06
2023-03-16T00:12:30.009Z,99385.38
2023-03-16T00:15:36.427Z,99379.62
2023-03-16T00:18:44.862Z,99379.29
2023-03-16T00:21:50.294Z,99378.08
2023-03-16T00:24:56.691Z,99374.84
2023-03-16T00:28:02.849Z,99375.89
2023-03-16T00:31:07.702Z,99375.73
2023-03-16T00:34:13.671Z,99377.42
2023-03-16T00:37:21.379Z,99378.60
2023-03-16T00:40:29.765Z,99370.97
2023-03-16T00:43:35.432Z,99374.72
2023-03-16T00:46:42.507Z,99366.56
2023-03-16T00:49:49.194Z,99366.25
2023-03-16T00:52:56.041Z,99361.31
2023-03-16T00:56:01.821Z,99366.24
2023-03-16T00:59:08.625Z,99366.58
2023-03-16T01:02:14.399Z,99360.81
2023-03-16T01:05:23.266Z,99361.14
2023-03-16T01:08:29.153Z,99360.30
2023-03-16T01:11:36.728Z,99361.84
2023-03-16T01:14:42.311Z,99356.40
2023-03-16T01:17:48.812Z,99364.38
2023-03-16T01:20:57.317Z,99362.35
2023-03-16T01:24:05.407Z,99359.31
2023-03-16T01:27:11.852Z,99367.28
2023-03-16T01:30:19.267Z,99367.65
2023-03-16T01:33:25.028Z,99376.47
2023-03-16T01:36:32.230Z,99373.27
2023-03-16T01:39:38.258Z,99376.31
2023-03-16T01:42:45.390Z,99386.33
2023-03-16T01:46:25.500Z,99390.41
2023-03-16T01:49:41.758Z,99380.23
2023-03-16T01:52:48.834Z,99372.94
2023-03-16T01:55:54.359Z,99379.55
2023-03-16T01:59:00.696Z,99377.67
2023-03-16T02:02:08.454Z,99370.70
2023-03-16T02:05:24.239Z,99369.67
2023-03-16T02:08:16.528Z,99371.40
2023-03-16T02:11:23.432Z,99368.83
2023-03-16T02:14:31.253Z,99371.03
2023-03-16T02:17:43.330Z,99367.98
2023-03-16T02:21:00.804Z,99365.09
2023-03-16T02:24:06.660Z,99371.55
2023-03-16T02:27:17.057Z,99371.03
2023-03-16T02:30:33.057Z,99367.14
2023-03-16T02:33:38.044Z,99361.19
2023-03-16T02:36:43.994Z,99347.61
2023-03-16T02:39:52.093Z,99343.20
2023-03-16T02:43:01.813Z,99327.61
2023-03-16T02:46:13.324Z,99326.92
2023-03-16T02:49:32.038Z,99325.38
2023-03-16T02:52:37.689Z,99319.62
2023-03-16T02:55:42.376Z,99317.27
2023-03-16T02:58:48.188Z,99316.91
2023-03-16T03:01:48.107Z,99323.03
2023-03-16T03:04:55.365Z,99325.23
2023-03-16T03:08:01.336Z,99334.88
2023-03-16T03:11:07.146Z,99328.28
2023-03-16T03:14:12.564Z,99335.06
2023-03-16T03:17:21.832Z,99337.08
2023-03-16T03:20:28.697Z,99339.27
2023-03-16T03:23:35.042Z,99336.05
2023-03-16T03:26:40.590Z,99333.52
2023-03-16T03:29:48.911Z,99331.97
2023-03-16T03:32:55.898Z,99329.77
2023-03-16T03:36:12.653Z,99339.13
2023-03-16T03:39:17.798Z,99339.78
2023-03-16T03:42:24.314Z,99332.81
2023-03-16T03:45:24.389Z,99339.09
2023-03-16T03:48:31.710Z,99345.73
2023-03-16T03:51:37.862Z,99348.27
2023-03-16T03:54:45.962Z,99356.94
2023-03-16T03:57:44.630Z,99351.69
2023-03-16T04:00:51.202Z,99349.16
2023-03-16T04:03:57.064Z,99347.09
2023-03-16T04:07:02.620Z,99343.02
2023-03-16T04:10:07.727Z,99354.72
2023-03-16T04:13:14.657Z,99356.73
2023-03-16T04:16:22.507Z,99352.33
2023-03-16T04:19:29.552Z,99351.11
2023-03-16T04:22:37.597Z,99360.47
2023-03-16T04:25:45.161Z,99360.59
2023-03-16T04:28:53.824Z,99360.73
2023-03-16T04:32:00.530Z,99371.28
2023-03-16T04:35:02.466Z,99369.92
2023-03-16T04:37:53.431Z,99365.01
2023-03-16T04:40:47.922Z,99362.16
2023-03-16T04:43:35.947Z,99364.69
2023-03-16T04:46:30.519Z,99369.78
2023-03-16T04:49:24.686Z,99359.44
2023-03-16T04:52:29.225Z,99357.55
2023-03-16T04:55:35.146Z,99358.59
2023-03-16T04:58:41.963Z,99356.72
2023-03-16T05:01:47.474Z,99353.34
2023-03-16T05:04:52.953Z,99350.11
2023-03-16T05:07:59.518Z,99348.06
2023-03-16T05:11:12.353Z,99349.59
2023-03-16T05:14:19.889Z,99354.33
2023-03-16T05:17:27.709Z,99359.09
2023-03-16T05:20:33.638Z,99367.73
2023-03-16T05:23:39.581Z,99371.27
2023-03-16T05:26:45.736Z,99380.95
2023-03-16T05:29:53.549Z,99382.11
2023-03-16T05:33:01.507Z,99380.57
2023-03-16T05:36:10.284Z,99387.84
2023-03-16T05:39:17.648Z,99383.06
2023-03-16T05:42:23.112Z,99381.84
2023-03-16T05:45:30.554Z,99387.79
2023-03-16T05:48:38.525Z,99397.30
2023-03-16T05:51:46.384Z,99397.11
2023-03-16T05:54:54.332Z,99393.53
2023-03-16T05:57:59.764Z,99394.53
2023-03-16T06:01:06.279Z,99401.78
2023-03-16T06:04:14.479Z,99395.96
2023-03-16T06:07:20.112Z,99400.48
2023-03-16T06:10:26.838Z,99402.84
2023-03-16T06:13:36.742Z,99404.86
2023-03-16T06:16:43.279Z,99400.08
2023-03-16T06:19:49.443Z,99393.60
2023-03-16T06:22:56.713Z,99398.55
2023-03-16T06:26:06.388Z,99404.34
2023-03-16T06:29:13.527Z,99396.72
2023-03-16T06:32:20.189Z,99397.77
2023-03-16T06:35:26.157Z,99392.80
2023-03-16T06:38:27.521Z,99392.91
2023-03-16T06:41:35.702Z,99385.65
2023-03-16T06:44:43.493Z,99388.38
2023-03-16T06:47:50.687Z,99390.73
2023-03-16T06:50:56.226Z,99389.06
2023-03-16T06:54:01.506Z,99383.30
2023-03-16T06:57:10.528Z,99385.00
2023-03-16T07:00:16.438Z,99385.52
2023-03-16T07:03:22.069Z,99385.16
2023-03-16T07:06:29.927Z,99384.45
2023-03-16T07:09:38.699Z,99385.95
2023-03-16T07:12:43.838Z,99383.36
2023-03-16T07:15:51.993Z,99385.05
2023-03-16T07:18:58.825Z,99388.78
2023-03-16T07:22:05.072Z,99390.73
2023-03-16T07:25:12.563Z,99389.91
2023-03-16T07:28:20.437Z,99390.70
2023-03-16T07:31:29.533Z,99390.86
2023-03-16T07:34:37.108Z,99392.08
2023-03-16T07:37:44.915Z,99388.64
2023-03-16T07:40:53.308Z,99388.64
2023-03-16T07:44:00.564Z,99383.84
2023-03-16T07:47:08.014Z,99383.78
2023-03-16T07:50:15.370Z,99387.15
2023-03-16T07:53:22.842Z,99390.39
2023-03-16T07:56:47.830Z,99385.95
2023-03-16T07:59:37.255Z,99387.48
2023-03-16T08:02:45.304Z,99391.53
2023-03-16T08:05:51.534Z,99386.01
2023-03-16T08:08:59.634Z,99393.66
2023-03-16T08:12:06.859Z,99386.05
2023-03-16T08:15:13.467Z,99398.72
2023-03-16T08:18:20.470Z,99397.36
2023-03-16T08:21:28.700Z,99402.23
2023-03-16T08:24:34.516Z,99402.97
2023-03-16T08:27:42.256Z,99401.66
2023-03-16T08:30:48.455Z,99403.80
2023-03-16T08:34:01.361Z,99406.61
2023-03-16T08:37:09.470Z,99411.29
2023-03-16T08:40:25.080Z,99413.30
2023-03-16T08:43:32.671Z,99412.41
2023-03-16T08:46:38.655Z,99415.45
2023-03-16T08:49:45.071Z,99411.69
2023-03-16T08:52:50.836Z,99412.16
2023-03-16T08:55:56.316Z,99410.95
2023-03-16T08:59:02.270Z,99403.69
2023-03-16T09:02:07.017Z,99413.19
2023-03-16T09:05:12.786Z,99415.30
2023-03-16T09:08:19.443Z,99405.07
2023-03-16T09:11:26.986Z,99410.68
2023-03-16T09:14:32.748Z,99417.66
2023-03-16T09:17:39.149Z,99421.62
2023-03-16T09:20:37.859Z,99423.35
2023-03-16T09:23:48.471Z,99427.61
2023-03-16T09:26:53.688Z,99427.09
2023-03-16T09:30:01.605Z,99431.08
2023-03-16T09:33:07.536Z,99432.13
2023-03-16T09:36:13.286Z,99427.70
2023-03-16T09:39:20.416Z,99425.51
2023-03-16T09:42:50.460Z,99427.06
2023-03-16T09:46:18.142Z,99428.69
2023-03-16T09:49:11.879Z,99423.52
2023-03-16T09:52:48.476Z,99425.84
2023-03-16T09:55:54.975Z,99425.80
2023-03-16T09:59:00.566Z,99426.88
2023-03-16T10:02:48.085Z,99424.24
2023-03-16T10:05:53.981Z,99424.95
2023-03-16T10:09:02.106Z,99418.19
2023-03-16T10:12:11.079Z,99417.56
2023-03-16T10:15:29.291Z,99419.78
2023-03-16T10:18:33.354Z,99420.05
2023-03-16T10:21:39.620Z,99408.33
2023-03-16T10:25:00.070Z,99399.92
2023-03-16T10:28:10.291Z,99400.25
2023-03-16T10:31:16.526Z,99412.92
2023-03-16T10:34:21.650Z,99403.33
2023-03-16T10:37:22.556Z,99405.66
2023-03-16T10:40:32.056Z,99395.00
2023-03-16T10:43:39.129Z,99394.37
2023-03-16T10:47:06.757Z,99386.88
2023-03-16T10:50:12.560Z,99385.30
2023-03-16T10:53:19.633Z,99385.19
2023-03-16T10:56:35.029Z,99387.30
2023-03-16T10:59:45.990Z,99386.77
2023-03-16T11:02:52.958Z,99394.58
2023-03-16T11:05:59.635Z,99392.77
2023-03-16T11:09:00.793Z,99396.78
2023-03-16T11:12:07.010Z,99395.51
2023-03-16T11:15:26.123Z,99398.05
2023-03-16T11:18:42.388Z,99399.83
2023-03-16T11:22:31.415Z,99404.68
2023-03-16T11:25:54.904Z,99402.69
2023-03-16T11:29:06.923Z,99398.36
2023-03-16T11:32:15.455Z,99399.08
2023-03-16T11:35:30.077Z,99398.45
2023-03-16T11:38:40.731Z,99387.48
2023-03-16T11:42:04.557Z,99388.55
2023-03-16T11:45:55.630Z,99383.78
2023-03-16T11:49:50.984Z,99379.05
2023-03-16T11:53:44.183Z,99376.81
2023-03-16T11:56:57.703Z,99379.73
2023-03-16T12:00:08.018Z,99374.26
2023-03-16T12:03:43.571Z,99377.85
2023-03-16T12:07:18.207Z,99377.39
2023-03-16T12:10:33.084Z,99381.16
2023-03-16T12:14:07.603Z,99380.08
2023-03-16T12:17:20.383Z,99383.48
2023-03-16T12:20:36.098Z,99390.63
2023-03-16T12:23:54.861Z,99389.67
2023-03-16T12:27:00.788Z,99387.36
2023-03-16T12:30:30.484Z,99397.63
2023-03-16T12:33:56.983Z,99404.45
2023-03-16T12:37:21.166Z,99402.32
2023-03-16T12:40:45.840Z,99398.84
2023-03-16T12:44:11.456Z,99401.74
2023-03-16T12:47:39.528Z,99407.72
2023-03-16T12:50:45.529Z,99411.55
2023-03-16T12:54:07.271Z,99413.89
2023-03-16T12:57:21.910Z,99421.40
2023-03-16T13:00:28.949Z,99426.36
2023-03-16T13:03:36.728Z,99423.77
2023-03-16T13:06:45.196Z,99428.39
2023-03-16T13:09:52.958Z,99436.00
2023-03-16T13:12:59.034Z,99431.23
2023-03-16T13:16:06.499Z,99438.25
2023-03-16T13:19:11.610Z,99442.36
2023-03-16T13:22:55.075Z,99441.16
2023-03-16T13:26:16.884Z,99444.16
2023-03-16T13:29:41.357Z,99446.71
2023-03-16T13:32:47.569Z,99447.57
2023-03-16T13:35:52.805Z,99444.64
2023-03-16T13:38:59.008Z,99445.55
2023-03-16T13:42:35.023Z,99440.45
2023-03-16T13:45:51.536Z,99444.01
2023-03-16T13:48:58.475Z,99445.37
2023-03-16T13:52:04.328Z,99452.23
2023-03-16T13:55:16.341Z,99455.55
2023-03-16T13:58:44.746Z,99461.34
2023-03-16T14:01:49.592Z,99465.52
2023-03-16T14:04:55.359Z,99471.59
2023-03-16T14:07:57.820Z,99478.69
2023-03-16T14:10:52.286Z,99484.73
2023-03-16T14:13:59.252Z,99493.98
2023-03-16T14:17:07.068Z,99493.25
2023-03-16T14:20:14.713Z,99488.63
2023-03-16T14:23:32.455Z,99486.16
2023-03-16T14:26:39.413Z,99493.31
2023-03-16T14:29:45.201Z,99502.88
2023-03-16T14:32:51.078Z,99499.77
2023-03-16T14:35:59.232Z,99501.78
2023-03-16T14:39:06.798Z,99502.45
2023-03-16T14:42:13.426Z,99507.19
2023-03-16T14:45:22.391Z,99515.91
2023-03-16T14:48:33.054Z,99520.66
2023-03-16T14:51:39.635Z,99522.22
2023-03-16T14:54:45.271Z,99535.05
2023-03-16T14:57:53.803Z,99526.06
2023-03-16T15:01:00.239Z,99528.64
2023-03-16T15:04:05.609Z,99529.52
2023-03-16T15:07:12.206Z,99528.00
2023-03-16T15:10:40.474Z,99535.63
2023-03-16T15:13:49.000Z,99534.11
2023-03-16T15:16:55.881Z,99537.89
2023-03-16T15:20:01.628Z,99539.58
2023-03-16T15:23:08.501Z,99544.09
2023-03-16T15:26:14.837Z,99548.12
2023-03-16T15:29:24.935Z,99549.55
2023-03-16T15:32:30.263Z,99551.98
2023-03-16T15:35:35.752Z,99551.31
2023-03-16T15:38:49.329Z,99554.77
2023-03-16T15:41:55.190Z,99559.72
2023-03-16T15:45:01.678Z,99562.30
2023-03-16T15:48:01.816Z,99559.97
2023-03-16T15:51:11.873Z,99570.62
2023-03-16T15:54:13.135Z,99573.73
2023-03-16T15:56:59.986Z,99568.79
2023-03-16T15:59:54.475Z,99574.50
2023-03-16T16:02:42.091Z,99581.02
2023-03-16T16:05:42.094Z,99584.59
2023-03-16T16:08:48.389Z,99582.23
2023-03-16T16:11:54.754Z,99582.30
2023-03-16T16:15:01.218Z,99589.13
2023-03-16T16:18:20.888Z,99590.49
2023-03-16T16:21:16.971Z,99584.06
2023-03-16T16:24:24.307Z,99587.96
2023-03-16T16:27:29.888Z,99586.52
2023-03-16T16:30:38.827Z,99580.66
2023-03-16T16:33:49.824Z,99586.12
2023-03-16T16:36:56.548Z,99580.43
2023-03-16T16:40:02.052Z,99595.73
2023-03-16T16:43:07.967Z,99598.42
2023-03-16T16:46:20.714Z,99601.16
2023-03-16T16:49:41.445Z,99611.89
2023-03-16T16:52:48.694Z,99611.20
2023-03-16T16:55:54.242Z,99614.73
2023-03-16T16:58:59.808Z,99619.76
2023-03-16T17:02:06.399Z,99620.36
2023-03-16T17:05:13.530Z,99619.00
2023-03-16T17:08:21.421Z,99626.50
2023-03-16T17:11:37.348Z,99630.16
2023-03-16T17:14:36.432Z,99629.43
2023-03-16T17:17:44.170Z,99632.52
2023-03-16T17:20:51.929Z,99633.59
2023-03-16T17:23:59.996Z,99637.69
2023-03-16T17:27:13.915Z,99641.53
2023-03-16T17:30:22.377Z,99641.37
2023-03-16T17:33:28.763Z,99638.16
2023-03-16T17:36:34.608Z,99641.44
2023-03-16T17:39:45.521Z,99644.88
2023-03-16T17:42:53.013Z,99641.66
2023-03-16T17:46:00.614Z,99649.97
2023-03-16T17:49:06.670Z,99651.17
2023-03-16T17:52:13.135Z,99650.37
2023-03-16T17:55:23.229Z,99647.02
2023-03-16T17:58:43.220Z,99647.55
2023-03-16T18:01:50.472Z,99649.04
2023-03-16T18:04:56.587Z,99662.73
2023-03-16T18:08:02.999Z,99654.41
2023-03-16T18:11:12.715Z,99658.83
2023-03-16T18:14:20.465Z,99664.50
2023-03-16T18:17:43.281Z,99662.48
2023-03-16T18:20:52.211Z,99666.41
2023-03-16T18:23:57.992Z,99675.64
2023-03-16T18:27:04.321Z,99676.51
2023-03-16T18:30:09.818Z,99673.27
2023-03-16T18:33:16.511Z,99673.27
2023-03-16T18:36:34.616Z,99671.03
2023-03-16T18:39:42.685Z,99674.98
2023-03-16T18:42:47.533Z,99670.38
2023-03-16T18:45:54.857Z,99679.42
2023-03-16T18:49:00.644Z,99683.52
2023-03-16T18:52:08.270Z,99691.17
2023-03-16T18:55:14.484Z,99682.86
2023-03-16T18:58:27.449Z,99683.20
2023-03-16T19:01:47.332Z,99681.14
2023-03-16T19:04:53.726Z,99685.22
2023-03-16T19:08:03.740Z,99683.34
2023-03-16T19:11:12.080Z,99696.98
2023-03-16T19:14:20.905Z,99703.14
2023-03-16T19:17:27.070Z,99707.05
2023-03-16T19:20:40.045Z,99707.72
2023-03-16T19:23:50.000Z,99700.72
2023-03-16T19:26:56.854Z,99706.34
2023-03-16T19:30:03.872Z,99707.02
2023-03-16T19:33:09.601Z,99704.17
2023-03-16T19:36:17.256Z,99701.25
2023-03-16T19:39:27.989Z,99700.94
2023-03-16T19:42:48.685Z,99701.94
2023-03-16T19:45:54.955Z,99702.30
2023-03-16T19:49:01.295Z,99692.06
2023-03-16T19:52:07.561Z,99696.84
2023-03-16T19:55:13.371Z,99695.28
2023-03-16T19:58:18.578Z,99698.70
2023-03-16T20:01:32.585Z,99693.25
2023-03-16T20:04:39.889Z,99698.53
2023-03-16T20:07:46.148Z,99694.16
2023-03-16T20:10:51.896Z,99690.25
2023-03-16T20:13:57.667Z,99691.31
2023-03-16T20:17:04.218Z,99687.23
2023-03-16T20:20:10.846Z,99675.99
2023-03-16T20:23:12.285Z,99671.20
2023-03-16T20:26:17.378Z,99676.15
2023-03-16T20:29:33.614Z,99672.06
2023-03-16T20:32:50.009Z,99671.01
2023-03-16T20:35:57.893Z,99666.28
2023-03-16T20:39:03.349Z,99670.04
2023-03-16T20:42:09.791Z,99676.52
2023-03-16T20:45:16.408Z,99683.86
2023-03-16T20:48:31.998Z,99689.46
2023-03-16T20:51:37.947Z,99687.42
2023-03-16T20:54:44.324Z,99683.16
2023-03-16T20:57:51.772Z,99680.42
2023-03-16T21:00:58.709Z,99690.47
2023-03-16T21:04:07.225Z,99689.80
2023-03-16T21:07:12.021Z,99706.16
2023-03-16T21:10:18.191Z,99704.95
2023-03-16T21:13:38.211Z,99704.09
2023-03-16T21:16:43.023Z,99700.91
2023-03-16T21:19:48.241Z,99706.16
2023-03-16T21:22:55.220Z,99712.81
2023-03-16T21:26:13.957Z,99710.78
2023-03-16T21:29:20.957Z,99709.41
2023-03-16T21:32:37.931Z,99707.20
2023-03-16T21:35:49.854Z,99709.77
2023-03-16T21:38:55.361Z,99708.27
2023-03-16T21:42:01.665Z,99709.81
2023-03-16T21:45:08.246Z,99714.89
2023-03-16T21:48:13.855Z,99717.47
2023-03-16T21:51:28.628Z,99711.84
2023-03-16T21:54:34.613Z,99707.58
2023-03-16T21:57:41.197Z,99703.85
2023-03-16T22:00:47.257Z,99707.09
2023-03-16T22:03:53.908Z,99712.18
2023-03-16T22:06:59.572Z,99716.27
2023-03-16T22:10:05.324Z,99714.23
2023-03-16T22:13:12.475Z,99721.89
2023-03-16T22:16:22.822Z,99720.73
2023-03-16T22:19:29.307Z,99728.91
2023-03-16T22:22:29.182Z,99733.32
2023-03-16T22:25:37.312Z,99740.13
2023-03-16T22:28:43.573Z,99734.20
2023-03-16T22:31:49.902Z,99739.98
2023-03-16T22:34:52.537Z,99735.91
2023-03-16T22:37:59.962Z,99734.03
2023-03-16T22:41:06.904Z,99727.92
2023-03-16T22:44:12.275Z,99728.10
2023-03-16T22:47:16.859Z,99730.83
2023-03-16T22:50:31.477Z,99727.77
2023-03-16T22:53:40.460Z,99726.89
2023-03-16T22:56:46.138Z,99723.84
2023-03-16T22:59:52.810Z,99727.41
2023-03-16T23:02:59.880Z,99729.61
2023-03-16T23:06:09.055Z,99726.41
2023-03-16T23:09:13.724Z,99725.38
2023-03-16T23:12:20.785Z,99724.02
2023-03-16T23:15:31.581Z,99721.96
2023-03-16T23:18:39.261Z,99721.96
2023-03-16T23:21:45.200Z,99728.77
2023-03-16T23:24:50.847Z,99729.09
2023-03-16T23:27:56.459Z,99723.98
2023-03-16T23:31:01.724Z,99719.75
2023-03-16T23:34:09.103Z,99722.62
2023-03-16T23:37:15.851Z,99710.22
2023-03-16T23:40:22.691Z,99713.94
2023-03-16T23:43:22.092Z,99712.44
2023-03-16T23:46:31.751Z,99727.59
2023-03-16T23:49:40.798Z,99723.32
2023-03-16T23:52:45.591Z,99723.32
2023-03-16T23:55:43.993Z,99721.27
2023-03-16T23:58:51.103Z,99725.34
